sensor_id;sensor_type;location;lat;lon;timestamp;pressure;altitude;pressure_sealevel;temperature;humidity
74881;BME280;63427;49.654;6.596;2023-04-03T00:02:24;100719.71;;;6.95;33.15
74881;BME280;63427;49.654;6.596;2023-04-03T00:04:50;100721.16;;;6.78;33.16
74881;BME280;63427;49.654;6.596;2023-04-03T00:07:16;100711.74;;;7.56;33.76
74881;BME280;63427;49.654;6.596;2023-04-03T00:09:41;100714.07;;;7.73;33.07
74881;BME280;63427;49.654;6.596;2023-04-03T00:12:07;100719.75;;;7.69;32.68
74881;BME280;63427;49.654;6.596;2023-04-03T00:14:33;100711.59;;;8.05;31.74
74881;BME280;63427;49.654;6.596;2023-04-03T00:16:59;100713.37;;;7.77;32.30
74881;BME280;63427;49.654;6.596;2023-04-03T00:19:24;100715.53;;;5.85;34.09
74881;BME280;63427;49.654;6.596;2023-04-03T00:21:50;100712.23;;;7.40;34.68
74881;BME280;63427;49.654;6.596;2023-04-03T00:24:16;100714.13;;;7.46;32.10
74881;BME280;63427;49.654;6.596;2023-04-03T00:26:42;100717.63;;;7.41;32.08
74881;BME280;63427;49.654;6.596;2023-04-03T00:29:07;100718.53;;;7.72;32.49
74881;BME280;63427;49.654;6.596;2023-04-03T00:31:33;100710.41;;;6.53;32.86
74881;BME280;63427;49.654;6.596;2023-04-03T00:33:59;100718.28;;;7.02;33.85
74881;BME280;63427;49.654;6.596;2023-04-03T00:36:25;100714.36;;;7.42;32.76
74881;BME280;63427;49.654;6.596;2023-04-03T00:38:51;100714.28;;;7.49;32.63
74881;BME280;63427;49.654;6.596;2023-04-03T00:41:16;100718.67;;;7.43;33.10
74881;BME280;63427;49.654;6.596;2023-04-03T00:43:42;100715.06;;;8.12;33.76
74881;BME280;63427;49.654;6.596;2023-04-03T00:46:08;100709.63;;;7.85;32.56
74881;BME280;63427;49.654;6.596;2023-04-03T00:48:37;100711.63;;;7.85;32.39
74881;BME280;63427;49.654;6.596;2023-04-03T00:50:59;100707.17;;;7.54;31.54
74881;BME280;63427;49.654;6.596;2023-04-03T00:53:27;100707.92;;;7.14;32.52
74881;BME280;63427;49.654;6.596;2023-04-03T00:55:52;100707.04;;;7.43;31.97
74881;BME280;63427;49.654;6.596;2023-04-03T00:58:18;100706.85;;;7.55;33.48
74881;BME280;63427;49.654;6.596;2023-04-03T01:00:48;100708.17;;;7.37;32.77
74881;BME280;63427;49.654;6.596;2023-04-03T01:03:08;100706.16;;;7.57;32.12
74881;BME280;63427;49.654;6.596;2023-04-03T01:05:34;100708.62;;;7.67;32.12
74881;BME280;63427;49.654;6.596;2023-04-03T01:08:00;100708.61;;;7.75;32.67
74881;BME280;63427;49.654;6.596;2023-04-03T01:10:25;100710.73;;;7.97;32.92
74881;BME280;63427;49.654;6.596;2023-04-03T01:12:52;100711.71;;;7.98;32.94
74881;BME280;63427;49.654;6.596;2023-04-03T01:15:19;100710.28;;;8.35;32.81
74881;BME280;63427;49.654;6.596;2023-04-03T01:17:45;100710.23;;;7.66;33.02
74881;BME280;63427;49.654;6.596;2023-04-03T01:22:35;100703.35;;;7.86;33.43
74881;BME280;63427;49.654;6.596;2023-04-03T01:25:00;100700.26;;;8.08;32.67
74881;BME280;63427;49.654;6.596;2023-04-03T01:27:26;100705.39;;;7.95;31.32
74881;BME280;63427;49.654;6.596;2023-04-03T01:29:51;100704.11;;;7.78;32.32
74881;BME280;63427;49.654;6.596;2023-04-03T01:32:17;100709.15;;;7.91;32.35
74881;BME280;63427;49.654;6.596;2023-04-03T01:34:43;100711.94;;;7.73;31.40
74881;BME280;63427;49.654;6.596;2023-04-03T01:37:09;100710.75;;;7.46;31.85
74881;BME280;63427;49.654;6.596;2023-04-03T01:39:35;100712.97;;;8.18;32.10
74881;BME280;63427;49.654;6.596;2023-04-03T01:42:00;100714.35;;;8.08;32.87
74881;BME280;63427;49.654;6.596;2023-04-03T01:44:26;100714.41;;;7.83;33.17
74881;BME280;63427;49.654;6.596;2023-04-03T01:46:52;100714.96;;;7.62;33.72
74881;BME280;63427;49.654;6.596;2023-04-03T01:49:18;100715.96;;;7.28;34.52
74881;BME280;63427;49.654;6.596;2023-04-03T01:51:44;100715.82;;;7.69;34.05
74881;BME280;63427;49.654;6.596;2023-04-03T01:54:09;100717.88;;;7.52;34.43
74881;BME280;63427;49.654;6.596;2023-04-03T01:56:35;100719.27;;;7.39;35.08
74881;BME280;63427;49.654;6.596;2023-04-03T01:59:01;100722.73;;;7.21;35.20
74881;BME280;63427;49.654;6.596;2023-04-03T02:01:27;100722.98;;;7.01;35.26
74881;BME280;63427;49.654;6.596;2023-04-03T02:03:53;100718.61;;;6.77;35.93
74881;BME280;63427;49.654;6.596;2023-04-03T02:06:18;100721.86;;;6.69;36.21
74881;BME280;63427;49.654;6.596;2023-04-03T02:08:44;100721.68;;;6.87;36.35
74881;BME280;63427;49.654;6.596;2023-04-03T02:11:10;100723.88;;;6.54;35.98
74881;BME280;63427;49.654;6.596;2023-04-03T02:13:36;100723.49;;;6.27;35.98
74881;BME280;63427;49.654;6.596;2023-04-03T02:16:12;100723.91;;;6.20;36.59
74881;BME280;63427;49.654;6.596;2023-04-03T02:18:27;100721.40;;;6.57;36.25
74881;BME280;63427;49.654;6.596;2023-04-03T02:20:53;100723.72;;;6.15;36.64
74881;BME280;63427;49.654;6.596;2023-04-03T02:23:19;100720.50;;;6.34;36.75
74881;BME280;63427;49.654;6.596;2023-04-03T02:25:44;100719.23;;;6.15;36.65
74881;BME280;63427;49.654;6.596;2023-04-03T02:28:10;100719.88;;;6.09;37.67
74881;BME280;63427;49.654;6.596;2023-04-03T02:30:35;100722.27;;;5.91;37.26
74881;BME280;63427;49.654;6.596;2023-04-03T02:33:00;100722.28;;;5.80;37.56
74881;BME280;63427;49.654;6.596;2023-04-03T02:35:26;100719.01;;;6.04;37.55
74881;BME280;63427;49.654;6.596;2023-04-03T02:37:52;100724.86;;;5.76;37.97
74881;BME280;63427;49.654;6.596;2023-04-03T02:40:18;100721.29;;;5.76;37.79
74881;BME280;63427;49.654;6.596;2023-04-03T02:42:44;100720.94;;;5.91;38.14
74881;BME280;63427;49.654;6.596;2023-04-03T02:45:10;100725.48;;;5.51;38.19
74881;BME280;63427;49.654;6.596;2023-04-03T02:47:36;100722.38;;;5.61;38.09
74881;BME280;63427;49.654;6.596;2023-04-03T02:50:02;100721.74;;;5.44;38.36
74881;BME280;63427;49.654;6.596;2023-04-03T02:52:28;100722.53;;;5.30;38.40
74881;BME280;63427;49.654;6.596;2023-04-03T02:54:53;100724.21;;;5.64;37.91
74881;BME280;63427;49.654;6.596;2023-04-03T02:57:19;100727.35;;;4.95;38.51
74881;BME280;63427;49.654;6.596;2023-04-03T02:59:44;100718.36;;;5.54;38.43
74881;BME280;63427;49.654;6.596;2023-04-03T03:02:09;100717.30;;;4.97;38.88
74881;BME280;63427;49.654;6.596;2023-04-03T03:04:35;100720.81;;;5.28;39.19
74881;BME280;63427;49.654;6.596;2023-04-03T03:07:01;100722.11;;;5.17;39.15
74881;BME280;63427;49.654;6.596;2023-04-03T03:09:27;100719.77;;;4.85;38.90
74881;BME280;63427;49.654;6.596;2023-04-03T03:11:53;100724.37;;;4.60;39.24
74881;BME280;63427;49.654;6.596;2023-04-03T03:14:17;100724.87;;;4.56;39.33
74881;BME280;63427;49.654;6.596;2023-04-03T03:16:43;100725.26;;;4.61;39.14
74881;BME280;63427;49.654;6.596;2023-04-03T03:19:09;100726.61;;;5.11;39.13
74881;BME280;63427;49.654;6.596;2023-04-03T03:21:34;100725.04;;;4.49;39.35
74881;BME280;63427;49.654;6.596;2023-04-03T03:23:59;100725.71;;;4.63;39.53
74881;BME280;63427;49.654;6.596;2023-04-03T03:26:24;100732.71;;;4.75;39.53
74881;BME280;63427;49.654;6.596;2023-04-03T03:28:50;100732.33;;;4.51;39.54
74881;BME280;63427;49.654;6.596;2023-04-03T03:31:15;100732.24;;;4.54;39.79
74881;BME280;63427;49.654;6.596;2023-04-03T03:33:40;100730.15;;;4.28;39.99
74881;BME280;63427;49.654;6.596;2023-04-03T03:36:05;100729.26;;;4.42;40.59
74881;BME280;63427;49.654;6.596;2023-04-03T03:38:30;100727.04;;;4.37;40.34
74881;BME280;63427;49.654;6.596;2023-04-03T03:40:55;100724.41;;;4.22;40.64
74881;BME280;63427;49.654;6.596;2023-04-03T03:43:20;100725.62;;;4.39;40.33
74881;BME280;63427;49.654;6.596;2023-04-03T03:45:50;100724.86;;;4.40;40.17
74881;BME280;63427;49.654;6.596;2023-04-03T03:48:10;100725.68;;;3.97;40.36
74881;BME280;63427;49.654;6.596;2023-04-03T03:50:35;100724.51;;;4.15;40.36
74881;BME280;63427;49.654;6.596;2023-04-03T03:53:01;100726.77;;;4.14;40.32
74881;BME280;63427;49.654;6.596;2023-04-03T03:55:26;100725.16;;;4.15;40.45
74881;BME280;63427;49.654;6.596;2023-04-03T03:57:51;100719.65;;;4.12;40.32
74881;BME280;63427;49.654;6.596;2023-04-03T04:00:22;100724.89;;;3.99;40.40
74881;BME280;63427;49.654;6.596;2023-04-03T04:02:41;100719.52;;;4.08;40.38
74881;BME280;63427;49.654;6.596;2023-04-03T04:05:07;100722.76;;;4.03;40.30
74881;BME280;63427;49.654;6.596;2023-04-03T04:07:32;100721.80;;;3.94;40.88
74881;BME280;63427;49.654;6.596;2023-04-03T04:09:57;100721.57;;;4.03;40.86
74881;BME280;63427;49.654;6.596;2023-04-03T04:12:23;100722.61;;;3.66;41.05
74881;BME280;63427;49.654;6.596;2023-04-03T04:14:48;100720.43;;;3.56;41.06
74881;BME280;63427;49.654;6.596;2023-04-03T04:17:14;100719.83;;;3.57;41.11
74881;BME280;63427;49.654;6.596;2023-04-03T04:19:40;100722.21;;;3.81;40.95
74881;BME280;63427;49.654;6.596;2023-04-03T04:22:05;100719.30;;;3.74;41.01
74881;BME280;63427;49.654;6.596;2023-04-03T04:24:30;100720.95;;;3.52;41.01
74881;BME280;63427;49.654;6.596;2023-04-03T04:26:55;100719.67;;;3.76;40.92
74881;BME280;63427;49.654;6.596;2023-04-03T04:29:21;100720.06;;;3.48;40.82
74881;BME280;63427;49.654;6.596;2023-04-03T04:31:46;100720.47;;;3.62;41.03
74881;BME280;63427;49.654;6.596;2023-04-03T04:34:11;100718.66;;;3.34;41.02
74881;BME280;63427;49.654;6.596;2023-04-03T04:36:36;100720.65;;;3.83;40.97
74881;BME280;63427;49.654;6.596;2023-04-03T04:39:02;100718.31;;;3.30;41.99
74881;BME280;63427;49.654;6.596;2023-04-03T04:41:27;100716.37;;;3.31;42.14
74881;BME280;63427;49.654;6.596;2023-04-03T04:43:52;100717.90;;;3.19;41.88
74881;BME280;63427;49.654;6.596;2023-04-03T04:46:17;100718.57;;;3.32;42.43
74881;BME280;63427;49.654;6.596;2023-04-03T04:48:43;100719.01;;;3.68;42.06
74881;BME280;63427;49.654;6.596;2023-04-03T04:51:08;100719.86;;;3.30;42.25
74881;BME280;63427;49.654;6.596;2023-04-03T04:53:32;100721.23;;;3.33;42.23
74881;BME280;63427;49.654;6.596;2023-04-03T04:55:58;100721.67;;;3.19;42.91
74881;BME280;63427;49.654;6.596;2023-04-03T04:58:23;100721.67;;;3.40;42.07
74881;BME280;63427;49.654;6.596;2023-04-03T05:00:48;100721.18;;;3.26;42.04
74881;BME280;63427;49.654;6.596;2023-04-03T05:03:14;100721.29;;;3.22;42.11
74881;BME280;63427;49.654;6.596;2023-04-03T05:05:40;100726.12;;;3.15;42.10
74881;BME280;63427;49.654;6.596;2023-04-03T05:08:05;100725.50;;;3.27;42.18
74881;BME280;63427;49.654;6.596;2023-04-03T05:10:30;100726.50;;;3.19;42.07
74881;BME280;63427;49.654;6.596;2023-04-03T05:12:55;100731.39;;;3.21;41.96
74881;BME280;63427;49.654;6.596;2023-04-03T05:15:21;100733.41;;;2.98;42.18
74881;BME280;63427;49.654;6.596;2023-04-03T05:17:46;100735.07;;;3.19;42.02
74881;BME280;63427;49.654;6.596;2023-04-03T05:20:11;100736.79;;;3.17;41.91
74881;BME280;63427;49.654;6.596;2023-04-03T05:22:36;100737.54;;;2.94;42.89
74881;BME280;63427;49.654;6.596;2023-04-03T05:25:01;100738.96;;;3.37;42.36
74881;BME280;63427;49.654;6.596;2023-04-03T05:27:26;100743.89;;;3.27;42.60
74881;BME280;63427;49.654;6.596;2023-04-03T05:29:52;100744.54;;;3.17;42.49
74881;BME280;63427;49.654;6.596;2023-04-03T05:32:17;100745.02;;;2.75;42.74
74881;BME280;63427;49.654;6.596;2023-04-03T05:34:42;100750.52;;;3.08;42.46
74881;BME280;63427;49.654;6.596;2023-04-03T05:37:07;100750.02;;;3.08;42.50
74881;BME280;63427;49.654;6.596;2023-04-03T05:39:32;100751.49;;;3.15;42.20
74881;BME280;63427;49.654;6.596;2023-04-03T05:41:57;100750.72;;;2.85;43.65
74881;BME280;63427;49.654;6.596;2023-04-03T05:44:22;100756.94;;;3.09;42.83
74881;BME280;63427;49.654;6.596;2023-04-03T05:46:48;100756.18;;;2.97;43.49
74881;BME280;63427;49.654;6.596;2023-04-03T05:49:13;100760.19;;;3.40;43.26
74881;BME280;63427;49.654;6.596;2023-04-03T05:51:39;100764.92;;;2.96;43.17
74881;BME280;63427;49.654;6.596;2023-04-03T05:54:09;100767.82;;;3.06;43.02
74881;BME280;63427;49.654;6.596;2023-04-03T05:56:28;100767.15;;;3.36;42.61
74881;BME280;63427;49.654;6.596;2023-04-03T05:58:54;100769.45;;;3.10;42.82
74881;BME280;63427;49.654;6.596;2023-04-03T06:01:19;100770.27;;;3.38;42.64
74881;BME280;63427;49.654;6.596;2023-04-03T06:03:44;100771.02;;;3.23;42.59
74881;BME280;63427;49.654;6.596;2023-04-03T06:06:12;100776.21;;;3.08;42.47
74881;BME280;63427;49.654;6.596;2023-04-03T06:08:34;100773.56;;;3.37;43.41
74881;BME280;63427;49.654;6.596;2023-04-03T06:10:59;100774.72;;;3.33;42.85
74881;BME280;63427;49.654;6.596;2023-04-03T06:13:25;100778.42;;;3.46;42.62
74881;BME280;63427;49.654;6.596;2023-04-03T06:15:49;100782.80;;;3.47;43.30
74881;BME280;63427;49.654;6.596;2023-04-03T06:18:15;100784.87;;;3.55;43.30
74881;BME280;63427;49.654;6.596;2023-04-03T06:20:40;100787.29;;;3.63;43.78
74881;BME280;63427;49.654;6.596;2023-04-03T06:23:05;100787.16;;;3.72;43.31
74881;BME280;63427;49.654;6.596;2023-04-03T06:25:30;100787.23;;;3.30;43.85
74881;BME280;63427;49.654;6.596;2023-04-03T06:27:56;100789.05;;;3.85;43.95
74881;BME280;63427;49.654;6.596;2023-04-03T06:30:21;100788.33;;;3.84;43.82
74881;BME280;63427;49.654;6.596;2023-04-03T06:32:46;100790.75;;;3.94;43.72
74881;BME280;63427;49.654;6.596;2023-04-03T06:35:11;100788.99;;;4.15;42.79
74881;BME280;63427;49.654;6.596;2023-04-03T06:37:37;100794.27;;;4.22;43.54
74881;BME280;63427;49.654;6.596;2023-04-03T06:40:03;100793.16;;;4.35;43.54
74881;BME280;63427;49.654;6.596;2023-04-03T06:42:27;100797.65;;;4.34;42.43
74881;BME280;63427;49.654;6.596;2023-04-03T06:44:52;100797.43;;;4.46;42.37
74881;BME280;63427;49.654;6.596;2023-04-03T06:47:17;100796.91;;;4.56;42.29
74881;BME280;63427;49.654;6.596;2023-04-03T06:49:43;100799.27;;;4.99;41.39
74881;BME280;63427;49.654;6.596;2023-04-03T06:52:08;100801.51;;;5.06;41.01
74881;BME280;63427;49.654;6.596;2023-04-03T06:54:33;100799.22;;;5.09;40.57
74881;BME280;63427;49.654;6.596;2023-04-03T06:56:58;100798.22;;;5.34;41.18
74881;BME280;63427;49.654;6.596;2023-04-03T06:59:23;100795.35;;;5.24;40.83
74881;BME280;63427;49.654;6.596;2023-04-03T07:01:48;100795.45;;;5.41;40.10
74881;BME280;63427;49.654;6.596;2023-04-03T07:04:14;100794.53;;;5.61;39.94
74881;BME280;63427;49.654;6.596;2023-04-03T07:06:39;100793.84;;;5.76;39.60
74881;BME280;63427;49.654;6.596;2023-04-03T07:09:04;100788.54;;;6.04;39.58
74881;BME280;63427;49.654;6.596;2023-04-03T07:11:29;100798.42;;;5.92;39.83
74881;BME280;63427;49.654;6.596;2023-04-03T07:13:55;100796.08;;;5.19;39.71
74881;BME280;63427;49.654;6.596;2023-04-03T07:16:20;100794.29;;;5.99;39.01
74881;BME280;63427;49.654;6.596;2023-04-03T07:18:46;100796.82;;;5.98;39.01
74881;BME280;63427;49.654;6.596;2023-04-03T07:21:13;100795.71;;;6.16;38.41
74881;BME280;63427;49.654;6.596;2023-04-03T07:23:38;100797.94;;;6.26;38.36
74881;BME280;63427;49.654;6.596;2023-04-03T07:26:04;100796.31;;;6.57;37.89
74881;BME280;63427;49.654;6.596;2023-04-03T07:28:30;100794.13;;;6.62;37.72
74881;BME280;63427;49.654;6.596;2023-04-03T07:31:02;100802.51;;;7.13;37.92
74881;BME280;63427;49.654;6.596;2023-04-03T07:33:22;100801.23;;;6.65;37.41
74881;BME280;63427;49.654;6.596;2023-04-03T07:35:47;100799.61;;;7.38;36.68
74881;BME280;63427;49.654;6.596;2023-04-03T07:38:13;100797.18;;;7.02;36.59
74881;BME280;63427;49.654;6.596;2023-04-03T07:40:39;100798.76;;;7.04;36.97
74881;BME280;63427;49.654;6.596;2023-04-03T07:43:05;100799.38;;;7.44;36.31
74881;BME280;63427;49.654;6.596;2023-04-03T07:45:31;100797.94;;;7.36;36.08
74881;BME280;63427;49.654;6.596;2023-04-03T07:47:56;100803.73;;;7.74;36.77
74881;BME280;63427;49.654;6.596;2023-04-03T07:50:22;100799.27;;;7.71;34.93
74881;BME280;63427;49.654;6.596;2023-04-03T07:52:48;100802.36;;;7.80;35.03
74881;BME280;63427;49.654;6.596;2023-04-03T07:55:14;100801.26;;;8.22;34.44
74881;BME280;63427;49.654;6.596;2023-04-03T07:57:39;100798.97;;;8.67;33.93
74881;BME280;63427;49.654;6.596;2023-04-03T08:00:06;100797.42;;;8.07;34.11
74881;BME280;63427;49.654;6.596;2023-04-03T08:02:31;100801.38;;;8.69;35.70
74881;BME280;63427;49.654;6.596;2023-04-03T08:04:56;100799.73;;;8.49;33.15
74881;BME280;63427;49.654;6.596;2023-04-03T08:07:22;100798.39;;;8.11;33.87
74881;BME280;63427;49.654;6.596;2023-04-03T08:09:47;100791.23;;;8.89;34.44
74881;BME280;63427;49.654;6.596;2023-04-03T08:12:13;100787.44;;;9.44;33.11
74881;BME280;63427;49.654;6.596;2023-04-03T08:14:39;100794.04;;;9.10;32.03
74881;BME280;63427;49.654;6.596;2023-04-03T08:17:04;100790.30;;;9.64;32.01
74881;BME280;63427;49.654;6.596;2023-04-03T08:19:31;100799.34;;;9.87;31.47
74881;BME280;63427;49.654;6.596;2023-04-03T08:21:55;100795.53;;;9.85;30.67
74881;BME280;63427;49.654;6.596;2023-04-03T08:24:21;100794.53;;;9.40;30.97
74881;BME280;63427;49.654;6.596;2023-04-03T08:26:47;100794.25;;;9.59;31.76
74881;BME280;63427;49.654;6.596;2023-04-03T08:29:13;100786.77;;;10.52;30.26
74881;BME280;63427;49.654;6.596;2023-04-03T08:31:38;100788.48;;;9.87;29.46
74881;BME280;63427;49.654;6.596;2023-04-03T08:34:03;100791.95;;;10.43;30.05
74881;BME280;63427;49.654;6.596;2023-04-03T08:36:29;100787.78;;;9.74;29.11
74881;BME280;63427;49.654;6.596;2023-04-03T08:38:56;100789.65;;;9.49;29.18
74881;BME280;63427;49.654;6.596;2023-04-03T08:41:27;100792.40;;;9.59;28.93
74881;BME280;63427;49.654;6.596;2023-04-03T08:43:56;100791.34;;;9.69;29.33
74881;BME280;63427;49.654;6.596;2023-04-03T08:46:14;100793.33;;;9.67;28.29
74881;BME280;63427;49.654;6.596;2023-04-03T08:48:40;100795.83;;;10.27;28.32
74881;BME280;63427;49.654;6.596;2023-04-03T08:51:08;100800.53;;;10.57;27.94
74881;BME280;63427;49.654;6.596;2023-04-03T08:53:30;100799.88;;;10.44;28.12
74881;BME280;63427;49.654;6.596;2023-04-03T08:55:55;100803.71;;;10.85;26.23
74881;BME280;63427;49.654;6.596;2023-04-03T08:58:22;100805.97;;;11.19;26.66
74881;BME280;63427;49.654;6.596;2023-04-03T09:00:47;100802.87;;;11.77;26.05
74881;BME280;63427;49.654;6.596;2023-04-03T09:03:13;100800.93;;;12.22;25.37
74881;BME280;63427;49.654;6.596;2023-04-03T09:05:42;100803.46;;;11.97;24.61
74881;BME280;63427;49.654;6.596;2023-04-03T09:08:05;100798.82;;;11.81;24.35
74881;BME280;63427;49.654;6.596;2023-04-03T09:10:28;100800.41;;;11.29;25.40
74881;BME280;63427;49.654;6.596;2023-04-03T09:12:59;100800.44;;;12.31;24.71
74881;BME280;63427;49.654;6.596;2023-04-03T09:15:21;100794.50;;;11.18;25.29
74881;BME280;63427;49.654;6.596;2023-04-03T09:17:53;100790.20;;;11.43;24.33
74881;BME280;63427;49.654;6.596;2023-04-03T09:20:19;100793.24;;;12.58;25.25
74881;BME280;63427;49.654;6.596;2023-04-03T09:22:37;100791.21;;;12.43;25.67
74881;BME280;63427;49.654;6.596;2023-04-03T09:25:05;100792.00;;;13.13;23.59
74881;BME280;63427;49.654;6.596;2023-04-03T09:27:26;100786.75;;;13.67;24.32
74881;BME280;63427;49.654;6.596;2023-04-03T09:29:53;100786.87;;;12.66;24.42
74881;BME280;63427;49.654;6.596;2023-04-03T09:32:22;100787.89;;;12.11;22.81
74881;BME280;63427;49.654;6.596;2023-04-03T09:34:42;100783.10;;;12.32;22.61
74881;BME280;63427;49.654;6.596;2023-04-03T09:37:07;100778.48;;;12.26;22.56
74881;BME280;63427;49.654;6.596;2023-04-03T09:39:49;100780.69;;;12.94;23.76
74881;BME280;63427;49.654;6.596;2023-04-03T09:42:00;100776.97;;;14.01;22.04
74881;BME280;63427;49.654;6.596;2023-04-03T09:44:25;100777.10;;;15.03;20.58
74881;BME280;63427;49.654;6.596;2023-04-03T09:46:49;100784.22;;;15.13;21.34
74881;BME280;63427;49.654;6.596;2023-04-03T09:49:14;100779.47;;;14.22;21.06
74881;BME280;63427;49.654;6.596;2023-04-03T09:51:39;100772.42;;;14.06;21.92
74881;BME280;63427;49.654;6.596;2023-04-03T09:56:30;100772.88;;;15.93;21.60
74881;BME280;63427;49.654;6.596;2023-04-03T09:59:06;100769.84;;;15.58;20.87
74881;BME280;63427;49.654;6.596;2023-04-03T10:01:25;100773.65;;;16.12;21.38
74881;BME280;63427;49.654;6.596;2023-04-03T10:03:46;100775.53;;;16.54;19.19
74881;BME280;63427;49.654;6.596;2023-04-03T10:06:21;100776.97;;;14.79;19.49
74881;BME280;63427;49.654;6.596;2023-04-03T10:08:37;100770.32;;;14.65;21.04
74881;BME280;63427;49.654;6.596;2023-04-03T10:11:09;100773.13;;;14.55;21.10
74881;BME280;63427;49.654;6.596;2023-04-03T10:13:27;100769.45;;;14.95;20.70
74881;BME280;63427;49.654;6.596;2023-04-03T10:15:58;100771.21;;;16.03;19.73
74881;BME280;63427;49.654;6.596;2023-04-03T10:18:29;100767.73;;;16.84;20.34
74881;BME280;63427;49.654;6.596;2023-04-03T10:20:44;100769.48;;;16.41;18.43
74881;BME280;63427;49.654;6.596;2023-04-03T10:23:17;100757.81;;;17.79;19.08
74881;BME280;63427;49.654;6.596;2023-04-03T10:25:40;100763.13;;;18.59;17.71
74881;BME280;63427;49.654;6.596;2023-04-03T10:28:00;100763.03;;;17.50;17.90
74881;BME280;63427;49.654;6.596;2023-04-03T10:30:36;100772.41;;;16.51;17.88
74881;BME280;63427;49.654;6.596;2023-04-03T10:32:58;100769.89;;;16.74;19.26
74881;BME280;63427;49.654;6.596;2023-04-03T10:35:20;100768.10;;;16.20;16.69
74881;BME280;63427;49.654;6.596;2023-04-03T10:37:50;100770.55;;;16.74;17.41
74881;BME280;63427;49.654;6.596;2023-04-03T10:40:15;100768.85;;;16.40;18.40
74881;BME280;63427;49.654;6.596;2023-04-03T10:42:35;100767.44;;;16.72;19.29
74881;BME280;63427;49.654;6.596;2023-04-03T10:45:08;100755.07;;;18.10;20.12
74881;BME280;63427;49.654;6.596;2023-04-03T10:47:24;100750.21;;;18.15;17.07
74881;BME280;63427;49.654;6.596;2023-04-03T10:52:17;100754.47;;;19.89;17.22
74881;BME280;63427;49.654;6.596;2023-04-03T10:54:39;100751.00;;;19.83;18.48
74881;BME280;63427;49.654;6.596;2023-04-03T10:57:03;100746.60;;;19.80;17.40
74881;BME280;63427;49.654;6.596;2023-04-03T10:59:30;100743.89;;;19.79;17.58
74881;BME280;63427;49.654;6.596;2023-04-03T11:01:55;100744.77;;;20.63;16.73
74881;BME280;63427;49.654;6.596;2023-04-03T11:04:19;100736.36;;;20.42;14.84
74881;BME280;63427;49.654;6.596;2023-04-03T11:06:45;100740.09;;;18.89;15.43
74881;BME280;63427;49.654;6.596;2023-04-03T11:09:15;100748.48;;;20.36;16.10
74881;BME280;63427;49.654;6.596;2023-04-03T11:11:35;100743.80;;;19.86;17.46
74881;BME280;63427;49.654;6.596;2023-04-03T11:14:02;100742.49;;;19.42;14.33
74881;BME280;63427;49.654;6.596;2023-04-03T11:16:26;100741.69;;;19.65;14.20
74881;BME280;63427;49.654;6.596;2023-04-03T11:18:51;100732.64;;;20.24;13.74
74881;BME280;63427;49.654;6.596;2023-04-03T11:21:19;100727.50;;;20.62;13.48
74881;BME280;63427;49.654;6.596;2023-04-03T11:23:40;100726.42;;;19.59;14.31
74881;BME280;63427;49.654;6.596;2023-04-03T11:26:10;100732.98;;;19.49;14.82
74881;BME280;63427;49.654;6.596;2023-04-03T11:28:28;100728.71;;;19.40;14.23
74881;BME280;63427;49.654;6.596;2023-04-03T11:31:01;100721.93;;;20.84;13.67
74881;BME280;63427;49.654;6.596;2023-04-03T11:33:30;100725.58;;;20.74;13.46
74881;BME280;63427;49.654;6.596;2023-04-03T11:35:45;100719.70;;;20.55;14.50
74881;BME280;63427;49.654;6.596;2023-04-03T11:38:17;100717.54;;;20.17;14.13
74881;BME280;63427;49.654;6.596;2023-04-03T11:40:35;100710.28;;;20.40;17.59
74881;BME280;63427;49.654;6.596;2023-04-03T11:43:06;100711.96;;;20.92;13.80
74881;BME280;63427;49.654;6.596;2023-04-03T11:45:32;100702.21;;;21.90;13.03
74881;BME280;63427;49.654;6.596;2023-04-03T11:47:50;100710.26;;;22.44;14.97
74881;BME280;63427;49.654;6.596;2023-04-03T11:52:56;100701.46;;;22.41;13.21
74881;BME280;63427;49.654;6.596;2023-04-03T11:57:46;100698.47;;;22.06;14.63
74881;BME280;63427;49.654;6.596;2023-04-03T11:59:54;100696.56;;;22.39;14.47
74881;BME280;63427;49.654;6.596;2023-04-03T12:07:15;100688.47;;;24.18;12.43
74881;BME280;63427;49.654;6.596;2023-04-03T12:09:56;100687.06;;;23.01;12.76
74881;BME280;63427;49.654;6.596;2023-04-03T12:14:28;100681.01;;;25.01;12.54
74881;BME280;63427;49.654;6.596;2023-04-03T12:16:55;100672.43;;;24.90;13.79
74881;BME280;63427;49.654;6.596;2023-04-03T12:19:32;100670.69;;;25.91;10.92
74881;BME280;63427;49.654;6.596;2023-04-03T12:22:07;100667.14;;;24.75;12.31
74881;BME280;63427;49.654;6.596;2023-04-03T12:26:41;100665.81;;;23.73;14.17
74881;BME280;63427;49.654;6.596;2023-04-03T12:29:12;100663.42;;;21.75;11.20
74881;BME280;63427;49.654;6.596;2023-04-03T12:31:39;100666.89;;;21.77;12.02
74881;BME280;63427;49.654;6.596;2023-04-03T12:34:07;100670.94;;;22.36;11.95
74881;BME280;63427;49.654;6.596;2023-04-03T12:36:27;100664.81;;;22.38;11.92
74881;BME280;63427;49.654;6.596;2023-04-03T12:39:01;100658.81;;;22.44;15.74
74881;BME280;63427;49.654;6.596;2023-04-03T12:41:19;100656.26;;;23.45;12.55
74881;BME280;63427;49.654;6.596;2023-04-03T12:43:47;100645.00;;;23.77;11.66
74881;BME280;63427;49.654;6.596;2023-04-03T12:46:07;100646.34;;;23.16;11.34
74881;BME280;63427;49.654;6.596;2023-04-03T12:48:31;100637.56;;;23.78;14.07
74881;BME280;63427;49.654;6.596;2023-04-03T12:50:56;100643.12;;;22.98;14.14
74881;BME280;63427;49.654;6.596;2023-04-03T12:53:23;100634.68;;;24.53;15.03
74881;BME280;63427;49.654;6.596;2023-04-03T12:55:47;100641.25;;;24.97;12.87
74881;BME280;63427;49.654;6.596;2023-04-03T12:58:16;100637.23;;;25.02;12.17
74881;BME280;63427;49.654;6.596;2023-04-03T13:00:38;100639.23;;;24.29;11.40
74881;BME280;63427;49.654;6.596;2023-04-03T13:03:05;100630.79;;;24.13;10.71
74881;BME280;63427;49.654;6.596;2023-04-03T13:05:31;100632.11;;;25.02;11.78
74881;BME280;63427;49.654;6.596;2023-04-03T13:07:59;100632.46;;;23.87;11.36
74881;BME280;63427;49.654;6.596;2023-04-03T13:10:21;100625.01;;;25.05;15.32